KLM44M LFOZ-LFQQ
Flight info
| Callsign | KLM44M |
|---|---|
| Flight time | N/A |
| Altitude | 28000 |
| Route | VADOM UN874 CMB |
| Aircraft | B738/M-SDE2E3FGHIRWXY/LB1 |
Departure
| Time | 2026-05-03 23:42 |
|---|---|
| Airport | Orléans–Saint-Denis-de-l'Hôtel Airport (LFOZ) |
Arrival
| Time | N/A |
|---|---|
| Airport | Lille Airport (LFQQ) |
| Time | Latitude | Longitude | Altitude | Speed | Heading |
|---|---|---|---|---|---|
| 2026-05-03 22:56 | 47.89691 | 2.15986 | 404 ft | 0 kts | 324° |
| 2026-05-03 23:31 | 47.89694 | 2.15983 | 404 ft | 2 kts | 324° |
| 2026-05-03 23:31 | 47.89735 | 2.15938 | 404 ft | 12 kts | 323° |
| 2026-05-03 23:31 | 47.89790 | 2.15893 | 404 ft | 5 kts | 19° |
| 2026-05-03 23:32 | 47.89793 | 2.15941 | 404 ft | 7 kts | 144° |
| 2026-05-03 23:32 | 47.89740 | 2.15933 | 404 ft | 0 kts | 208° |
| 2026-05-03 23:32 | 47.89731 | 2.15925 | 404 ft | 8 kts | 213° |
| 2026-05-03 23:32 | 47.89723 | 2.15918 | 404 ft | 0 kts | 208° |
| 2026-05-03 23:34 | 47.89708 | 2.15914 | 404 ft | 8 kts | 171° |
| 2026-05-03 23:34 | 47.89698 | 2.15955 | 404 ft | 3 kts | 58° |
| 2026-05-03 23:34 | 47.89717 | 2.16107 | 404 ft | 13 kts | 49° |
| 2026-05-03 23:35 | 47.89759 | 2.16091 | 404 ft | 5 kts | 259° |
| 2026-05-03 23:35 | 47.89750 | 2.16070 | 404 ft | 6 kts | 232° |
| 2026-05-03 23:35 | 47.89720 | 2.16024 | 404 ft | 6 kts | 209° |
| 2026-05-03 23:35 | 47.89688 | 2.15998 | 404 ft | 5 kts | 209° |
| 2026-05-03 23:36 | 47.89620 | 2.15917 | 404 ft | 14 kts | 234° |
| 2026-05-03 23:36 | 47.89597 | 2.15867 | 404 ft | 0 kts | 236° |
| 2026-05-03 23:36 | 47.89536 | 2.15733 | 404 ft | 27 kts | 232° |
| 2026-05-03 23:36 | 47.89490 | 2.15690 | 404 ft | 0 kts | 171° |
| 2026-05-03 23:37 | 47.89486 | 2.15691 | 404 ft | 3 kts | 168° |
| 2026-05-03 23:37 | 47.89461 | 2.15704 | 404 ft | 0 kts | 149° |
| 2026-05-03 23:37 | 47.89458 | 2.15707 | 404 ft | 0 kts | 145° |
| 2026-05-03 23:37 | 47.89457 | 2.15708 | 404 ft | 0 kts | 145° |
| 2026-05-03 23:39 | 47.89449 | 2.15717 | 404 ft | 8 kts | 140° |
| 2026-05-03 23:40 | 47.89446 | 2.15790 | 404 ft | 1 kts | 55° |
| 2026-05-03 23:40 | 47.89448 | 2.15794 | 404 ft | 0 kts | 55° |
| 2026-05-03 23:41 | 47.89448 | 2.15795 | 404 ft | 2 kts | 55° |
| 2026-05-03 23:41 | 47.89654 | 2.16207 | 404 ft | 95 kts | 53° |
| 2026-05-03 23:41 | 47.90203 | 2.17298 | 481 ft | 162 kts | 53° |
| 2026-05-03 23:42 | 47.90933 | 2.18712 | 1378 ft | 171 kts | 49° |
| 2026-05-03 23:42 | 47.91926 | 2.19597 | 2578 ft | 169 kts | 15° |
| 2026-05-03 23:42 | 47.93131 | 2.19473 | 3219 ft | 189 kts | 342° |
| 2026-05-03 23:42 | 47.94331 | 2.18351 | 3658 ft | 219 kts | 319° |
| 2026-05-03 23:43 | 47.95435 | 2.16687 | 4144 ft | 244 kts | 315° |
| 2026-05-03 23:43 | 47.96688 | 2.14843 | 4906 ft | 258 kts | 315° |
| 2026-05-03 23:43 | 47.97934 | 2.13006 | 5558 ft | 262 kts | 315° |
| 2026-05-03 23:43 | 47.99225 | 2.11097 | 5948 ft | 260 kts | 314° |
| 2026-05-03 23:44 | 48.00514 | 2.09189 | 6913 ft | 261 kts | 312° |
| 2026-05-03 23:44 | 48.01804 | 2.07275 | 7992 ft | 263 kts | 312° |
| 2026-05-03 23:44 | 48.03107 | 2.05341 | 8959 ft | 267 kts | 312° |
| 2026-05-03 23:44 | 48.04436 | 2.03364 | 9916 ft | 271 kts | 312° |
| 2026-05-03 23:45 | 48.05802 | 2.01330 | 10615 ft | 286 kts | 312° |
| 2026-05-03 23:45 | 48.07265 | 1.99148 | 10990 ft | 310 kts | 312° |
| 2026-05-03 23:45 | 48.08777 | 1.96890 | 11373 ft | 330 kts | 312° |
| 2026-05-03 23:45 | 48.10427 | 1.94425 | 12154 ft | 337 kts | 312° |
| 2026-05-03 23:46 | 48.12095 | 1.91929 | 13034 ft | 341 kts | 312° |
| 2026-05-03 23:46 | 48.13781 | 1.89403 | 13880 ft | 346 kts | 312° |
| 2026-05-03 23:46 | 48.15493 | 1.86836 | 14706 ft | 350 kts | 312° |
| 2026-05-03 23:46 | 48.17220 | 1.84244 | 15508 ft | 354 kts | 312° |
| 2026-05-03 23:47 | 48.18971 | 1.81630 | 16288 ft | 358 kts | 313° |
| 2026-05-03 23:47 | 48.20753 | 1.78984 | 17046 ft | 362 kts | 313° |
| 2026-05-03 23:47 | 48.22553 | 1.76302 | 17779 ft | 367 kts | 313° |
| 2026-05-03 23:47 | 48.24372 | 1.73584 | 18496 ft | 371 kts | 312° |
| 2026-05-03 23:48 | 48.26208 | 1.70833 | 19196 ft | 374 kts | 312° |
| 2026-05-03 23:48 | 48.28056 | 1.68058 | 19875 ft | 378 kts | 312° |
| 2026-05-03 23:48 | 48.29936 | 1.65231 | 20532 ft | 382 kts | 312° |
| 2026-05-03 23:48 | 48.31183 | 1.63351 | 20952 ft | 385 kts | 312° |
| 2026-05-03 23:49 | 48.33715 | 1.59559 | 21769 ft | 390 kts | 313° |
| 2026-05-03 23:49 | 48.35019 | 1.57604 | 22172 ft | 393 kts | 313° |
| 2026-05-03 23:49 | 48.37586 | 1.53735 | 22940 ft | 397 kts | 312° |
| 2026-05-03 23:49 | 48.38911 | 1.51730 | 23318 ft | 400 kts | 312° |
| 2026-05-03 23:50 | 48.40867 | 1.48761 | 23860 ft | 403 kts | 312° |
| 2026-05-03 23:50 | 48.42849 | 1.45746 | 24389 ft | 407 kts | 312° |
| 2026-05-03 23:50 | 48.44819 | 1.42742 | 24895 ft | 410 kts | 312° |
| 2026-05-03 23:50 | 48.46865 | 1.39617 | 25397 ft | 414 kts | 312° |
| 2026-05-03 23:51 | 48.48868 | 1.36555 | 25872 ft | 417 kts | 312° |
| 2026-05-03 23:51 | 48.50934 | 1.33457 | 26326 ft | 421 kts | 316° |
| 2026-05-03 23:51 | 48.53402 | 1.31018 | 26770 ft | 430 kts | 332° |
| 2026-05-03 23:51 | 48.56286 | 1.29667 | 27232 ft | 438 kts | 348° |
| 2026-05-03 23:52 | 48.59305 | 1.29543 | 27764 ft | 444 kts | 2° |
| 2026-05-03 23:52 | 48.62361 | 1.30425 | 27992 ft | 450 kts | 12° |
| 2026-05-03 23:52 | 48.65354 | 1.31879 | 28138 ft | 455 kts | 16° |
| 2026-05-03 23:52 | 48.68348 | 1.33484 | 28333 ft | 456 kts | 15° |
| 2026-05-03 23:53 | 48.71395 | 1.34857 | 28550 ft | 455 kts | 11° |
| 2026-05-03 23:53 | 48.74516 | 1.35666 | 28605 ft | 456 kts | 2° |
| 2026-05-03 23:53 | 48.77715 | 1.35632 | 28287 ft | 463 kts | 351° |
| 2026-05-03 23:53 | 48.80857 | 1.34538 | 27461 ft | 479 kts | 338° |
| 2026-05-03 23:54 | 48.83886 | 1.32202 | 25909 ft | 498 kts | 323° |
| 2026-05-03 23:54 | 48.85238 | 1.30616 | 24811 ft | 509 kts | 317° |
| 2026-05-03 23:54 | 48.87630 | 1.26533 | 21678 ft | 529 kts | 303° |
| 2026-05-03 23:54 | 48.89363 | 1.21551 | 17165 ft | 542 kts | 290° |
| 2026-05-03 23:55 | 48.90151 | 1.17292 | 12766 ft | 0 kts | 281° |
| 2026-05-03 23:55 | 48.90382 | 1.14510 | 9715 ft | 550 kts | 274° |
| 2026-05-03 23:55 | 48.90145 | 1.08872 | 2937 ft | 525 kts | 259° |
| 2026-05-03 23:55 | 48.89129 | 1.03404 | 688 ft | 525 kts | 253° |
| 2026-05-03 23:56 | 48.88459 | 0.99981 | 1304 ft | 472 kts | 253° |
| 2026-05-03 23:56 | 48.88208 | 0.98698 | 1582 ft | 344 kts | 253° |
| 2026-05-03 23:56 | 48.88016 | 0.97613 | 1625 ft | 323 kts | 255° |
| 2026-05-03 23:56 | 48.87706 | 0.95892 | 740 ft | 336 kts | 254° |
| 2026-05-03 23:57 | 48.87337 | 0.93943 | 599 ft | 0 kts | 255° |
| 2026-05-03 23:59 | 49.01579 | 2.57682 | 391 ft | 0 kts | 355° |
| 2026-05-04 00:01 | 52.30433 | 4.76642 | 3 ft | 0 kts | 45° |
| 2026-05-04 00:10 | 52.30434 | 4.76643 | -3 ft | 0 kts | 45° |
| 2026-05-04 00:10 | 52.30542 | 4.76741 | -3 ft | 0 kts | 276° |
| 2026-05-04 00:10 | 52.30471 | 4.76748 | -3 ft | 0 kts | 314° |
| 2026-05-04 00:11 | 52.30706 | 4.76541 | -3 ft | 0 kts | 270° |
| 2026-05-04 00:11 | 52.30611 | 4.76641 | -3 ft | 0 kts | 248° |
| 2026-05-04 00:11 | 52.30532 | 4.76562 | -3 ft | 0 kts | 55° |
| 2026-05-04 00:12 | 52.30560 | 4.76628 | -3 ft | 286 kts | 55° |
| 2026-05-04 00:12 | 52.30514 | 4.76522 | -3 ft | 0 kts | 55° |
| 2026-05-04 00:13 | 52.30517 | 4.76519 | -3 ft | 0 kts | 55° |
| 2026-05-04 00:14 | 52.30474 | 4.76585 | -3 ft | 0 kts | 55° |
| 2026-05-04 00:14 | 52.30474 | 4.76573 | -3 ft | 2 kts | 55° |
| 2026-05-04 00:15 | 52.30475 | 4.76574 | -3 ft | 0 kts | 55° |